createdAt,value
2019-03-23T00:00:01.547Z,1.4
2019-03-23T00:10:01.586Z,1.5
2019-03-23T00:15:01.417Z,1.5
2019-03-23T00:25:01.480Z,1.5
2019-03-23T00:30:01.507Z,1.4
2019-03-23T00:35:01.470Z,1.4
2019-03-23T00:40:01.474Z,1.3
2019-03-23T00:45:01.447Z,1.3
2019-03-23T00:50:01.447Z,1.3
2019-03-23T01:00:01.405Z,1.3
2019-03-23T01:10:01.547Z,1.3
2019-03-23T01:15:01.509Z,1.3
2019-03-23T01:30:01.516Z,1.2
2019-03-23T01:40:01.519Z,1.2
2019-03-23T01:45:01.555Z,1.2
2019-03-23T01:56:01.443Z,1.2
2019-03-23T02:01:01.479Z,1.2
2019-03-23T02:11:01.513Z,1.3
2019-03-23T02:16:01.575Z,1.3
2019-03-23T02:26:01.471Z,1.3
2019-03-23T02:41:01.765Z,1.4
2019-03-23T02:46:01.549Z,1.4
2019-03-23T03:01:01.583Z,1.4
2019-03-23T03:07:01.512Z,1.3
2019-03-23T03:17:01.496Z,1.3
2019-03-23T03:27:01.574Z,1.3
2019-03-23T03:32:02.222Z,1.3
2019-03-23T03:47:01.509Z,1.3
2019-03-23T04:02:01.503Z,1.3
2019-03-23T04:12:01.527Z,1.3
2019-03-23T04:27:01.602Z,1.3
2019-03-23T04:32:01.440Z,1.3
2019-03-23T04:47:01.466Z,1.3
2019-03-23T04:57:01.516Z,1.3
2019-03-23T05:12:06.472Z,1.3
2019-03-23T05:17:01.567Z,1.3
2019-03-23T05:27:02.027Z,1.2
2019-03-23T05:42:01.506Z,1.3
2019-03-23T05:52:01.922Z,1.2
2019-03-23T06:07:01.678Z,1.2
2019-03-23T06:12:01.428Z,1.2
2019-03-23T06:17:06.579Z,1.2
2019-03-23T06:22:01.429Z,1.2
2019-03-23T06:32:01.571Z,1.2
2019-03-23T06:37:01.506Z,1.3
2019-03-23T06:42:01.440Z,1.2
2019-03-23T06:47:01.567Z,1.2
2019-03-23T06:52:02.210Z,1.2
2019-03-23T07:03:01.502Z,1.2
2019-03-23T07:18:01.682Z,1.2
2019-03-23T07:33:01.819Z,1.1
2019-03-23T07:48:01.456Z,1.1
2019-03-23T07:53:02.555Z,1.1
2019-03-23T08:08:01.511Z,1.1
2019-03-23T08:13:01.479Z,1.1
2019-03-23T08:18:01.494Z,1.1
2019-03-23T08:23:01.556Z,1.1
2019-03-23T08:38:01.452Z,1.1
2019-03-23T08:49:01.512Z,1.0
2019-03-23T08:54:01.575Z,1.0
2019-03-23T08:59:01.518Z,1.0
2019-03-23T09:04:01.443Z,0.9
2019-03-23T09:09:01.474Z,1.3
2019-03-23T09:14:01.610Z,1.3
2019-03-23T09:19:01.446Z,2.6
2019-03-23T09:24:01.515Z,2.6
2019-03-23T09:29:01.497Z,3.6
2019-03-23T09:34:01.562Z,3.4
2019-03-23T09:39:01.407Z,4.8
2019-03-23T09:44:01.438Z,4.8
2019-03-23T09:49:01.435Z,6.2
2019-03-23T09:54:01.515Z,5.6
2019-03-23T09:59:01.431Z,4.9
2019-03-23T10:04:01.472Z,4.7
2019-03-23T10:09:01.470Z,5.0
2019-03-23T10:14:03.531Z,4.7
2019-03-23T10:19:01.465Z,5.2
2019-03-23T10:24:01.501Z,4.6
2019-03-23T10:29:01.431Z,3.9
2019-03-23T10:34:01.483Z,3.3
2019-03-23T10:39:01.435Z,2.7
2019-03-23T10:44:01.538Z,2.2
2019-03-23T10:49:01.450Z,1.9
2019-03-23T10:54:04.275Z,1.6
2019-03-23T10:59:01.476Z,1.5
2019-03-23T11:04:01.676Z,1.4
2019-03-23T11:09:01.458Z,1.3
2019-03-23T11:15:01.568Z,1.2
2019-03-23T11:20:01.485Z,1.6
2019-03-23T11:25:01.553Z,1.6
2019-03-23T11:30:01.442Z,1.7
2019-03-23T11:35:01.648Z,1.9
2019-03-23T11:40:01.523Z,2.4
2019-03-23T11:45:01.514Z,2.4
2019-03-23T11:55:01.563Z,2.6
2019-03-23T12:00:01.492Z,2.7
2019-03-23T12:05:01.444Z,2.2
2019-03-23T12:10:01.451Z,1.9
2019-03-23T12:15:01.507Z,1.8
2019-03-23T12:20:02.243Z,1.6
2019-03-23T12:25:01.584Z,1.3
2019-03-23T12:30:07.939Z,1.1
2019-03-23T12:35:01.511Z,1.3
2019-03-23T12:40:01.443Z,1.1
2019-03-23T12:45:01.512Z,1.0
2019-03-23T12:51:02.343Z,1.0
2019-03-23T12:56:01.597Z,1.0
2019-03-23T13:01:01.471Z,0.8
2019-03-23T13:06:01.577Z,0.9
2019-03-23T13:16:01.538Z,0.9
2019-03-23T13:21:03.547Z,0.7
2019-03-23T13:26:01.478Z,0.9
2019-03-23T13:31:01.446Z,0.7
2019-03-23T13:36:01.575Z,0.8
2019-03-23T13:41:01.460Z,0.7
2019-03-23T13:46:01.554Z,0.8
2019-03-23T13:51:01.430Z,0.8
2019-03-23T13:56:01.531Z,0.7
2019-03-23T14:01:01.434Z,0.6
2019-03-23T14:06:01.587Z,0.8
2019-03-23T14:11:01.453Z,0.6
2019-03-23T14:16:01.492Z,0.6
2019-03-23T14:21:01.422Z,0.5
2019-03-23T14:26:01.547Z,0.5
2019-03-23T14:31:01.456Z,0.5
2019-03-23T14:36:01.646Z,0.7
2019-03-23T14:46:01.502Z,0.9
2019-03-23T14:51:01.439Z,0.8
2019-03-23T14:56:01.564Z,0.8
2019-03-23T15:01:01.436Z,1.0
2019-03-23T15:16:01.601Z,1.0
2019-03-23T15:21:01.456Z,1.0
2019-03-23T15:26:01.572Z,0.8
2019-03-23T15:31:01.455Z,1.0
2019-03-23T15:36:03.905Z,1.3
2019-03-23T15:41:01.466Z,1.6
2019-03-23T15:46:01.493Z,1.5
2019-03-23T15:56:01.540Z,1.3
2019-03-23T16:01:01.427Z,1.0
2019-03-23T16:06:01.567Z,0.5
2019-03-23T16:11:01.472Z,0.7
2019-03-23T16:16:01.508Z,0.7
2019-03-23T16:21:01.489Z,1.0
2019-03-23T16:26:01.503Z,1.2
2019-03-23T16:31:01.438Z,1.3
2019-03-23T16:36:03.838Z,1.3
2019-03-23T16:41:01.416Z,1.4
2019-03-23T16:51:01.632Z,1.1
2019-03-23T16:56:01.673Z,1.1
2019-03-23T17:06:01.574Z,0.9
2019-03-23T17:11:01.452Z,0.6
2019-03-23T17:16:01.570Z,0.6
2019-03-23T17:21:01.451Z,0.6
2019-03-23T17:26:01.507Z,0.7
2019-03-23T17:31:01.437Z,0.9
2019-03-23T17:36:01.502Z,0.9
2019-03-23T17:41:01.477Z,1.1
2019-03-23T17:46:01.557Z,1.1
2019-03-23T17:56:01.505Z,0.8
2019-03-23T18:01:01.445Z,0.9
2019-03-23T18:06:01.446Z,0.6
2019-03-23T18:11:01.435Z,0.6
2019-03-23T18:16:01.433Z,0.6
2019-03-23T18:21:01.434Z,0.5
2019-03-23T18:26:01.566Z,0.7
2019-03-23T18:31:01.449Z,0.7
2019-03-23T18:36:01.507Z,0.7
2019-03-23T18:41:01.446Z,0.7
2019-03-23T18:46:01.647Z,0.8
2019-03-23T18:51:01.471Z,0.8
2019-03-23T18:56:01.575Z,0.7
2019-03-23T19:01:01.492Z,0.8
2019-03-23T19:06:01.509Z,0.9
2019-03-23T19:11:01.449Z,0.8
2019-03-23T19:21:01.542Z,0.9
2019-03-23T19:26:01.615Z,0.9
2019-03-23T19:31:01.478Z,0.9
2019-03-23T19:36:01.575Z,1.1
2019-03-23T19:41:01.480Z,1.0
2019-03-23T19:51:04.127Z,1.0
2019-03-23T19:56:01.662Z,1.0
2019-03-23T20:01:01.430Z,0.8
2019-03-23T20:06:01.580Z,0.8
2019-03-23T20:16:01.447Z,0.9
2019-03-23T20:21:01.447Z,1.0
2019-03-23T20:26:01.504Z,1.1
2019-03-23T20:36:01.542Z,1.1
2019-03-23T20:51:01.601Z,1.1
2019-03-23T20:56:01.450Z,1.1
2019-03-23T21:01:01.492Z,1.0
2019-03-23T21:06:01.485Z,1.0
2019-03-23T21:21:01.486Z,1.2
2019-03-23T21:26:01.514Z,1.2
2019-03-23T21:36:01.517Z,1.1
2019-03-23T21:41:01.481Z,1.1
2019-03-23T21:52:01.533Z,1.0
2019-03-23T21:57:01.542Z,1.0
2019-03-23T22:02:02.441Z,0.7
2019-03-23T22:07:01.474Z,0.6
2019-03-23T22:12:01.501Z,0.5
2019-03-23T22:22:01.534Z,0.4
2019-03-23T22:27:01.568Z,0.4
2019-03-23T22:32:01.447Z,0.7
2019-03-23T22:37:01.738Z,0.8
2019-03-23T22:42:01.456Z,0.7
2019-03-23T22:47:01.568Z,0.8
2019-03-23T22:57:01.572Z,0.7
2019-03-23T23:02:01.437Z,0.6
2019-03-23T23:07:01.522Z,0.6
2019-03-23T23:12:01.466Z,0.8
2019-03-23T23:17:01.517Z,0.7
2019-03-23T23:22:01.470Z,0.6
2019-03-23T23:27:01.575Z,0.6
2019-03-23T23:32:01.452Z,0.3
2019-03-23T23:37:01.585Z,0.3
2019-03-23T23:42:01.445Z,0.6
2019-03-23T23:47:01.550Z,0.5
2019-03-23T23:52:01.504Z,0.6
2019-03-23T23:57:01.526Z,0.5
